createdAt,value
2018-05-08T00:00:25.640Z,19.80
2018-05-08T00:02:54.294Z,19.77
2018-05-08T00:05:23.388Z,19.77
2018-05-08T00:07:51.696Z,19.86
2018-05-08T00:10:20.080Z,19.76
2018-05-08T00:12:48.403Z,19.50
2018-05-08T00:15:16.748Z,19.63
2018-05-08T00:17:45.393Z,19.68
2018-05-08T00:20:14.482Z,19.65
2018-05-08T00:22:43.582Z,19.40
2018-05-08T00:25:12.695Z,19.27
2018-05-08T00:27:41.027Z,19.33
2018-05-08T00:30:09.377Z,19.33
2018-05-08T00:32:37.723Z,19.53
2018-05-08T00:35:06.059Z,19.55
2018-05-08T00:37:34.374Z,19.50
2018-05-08T00:40:03.618Z,19.48
2018-05-08T00:42:31.922Z,19.55
2018-05-08T00:45:00.245Z,19.57
2018-05-08T00:47:28.687Z,19.50
2018-05-08T00:49:57.040Z,19.50
2018-05-08T00:52:25.449Z,19.44
2018-05-08T00:55:07.122Z,19.54
2018-05-08T00:57:35.543Z,19.35
2018-05-08T01:00:04.677Z,19.44
2018-05-08T01:02:33.072Z,19.41
2018-05-08T01:05:01.916Z,19.27
2018-05-08T01:07:30.142Z,19.26
2018-05-08T01:09:58.596Z,19.33
2018-05-08T01:12:26.944Z,19.25
2018-05-08T01:14:55.279Z,19.17
2018-05-08T01:17:24.038Z,19.13
2018-05-08T01:19:52.350Z,19.09
2018-05-08T01:22:20.682Z,19.06
2018-05-08T01:24:49.035Z,19.07
2018-05-08T01:27:17.376Z,19.01
2018-05-08T01:29:45.733Z,18.91
2018-05-08T01:32:14.127Z,18.91
2018-05-08T01:34:43.199Z,18.78
2018-05-08T01:37:11.508Z,18.85
2018-05-08T01:39:40.677Z,18.74
2018-05-08T01:42:08.974Z,18.70
2018-05-08T01:44:38.076Z,18.77
2018-05-08T01:47:06.440Z,18.62
2018-05-08T01:49:34.733Z,18.65
2018-05-08T01:52:03.815Z,18.56
2018-05-08T01:54:32.169Z,18.60
2018-05-08T01:57:00.506Z,18.49
2018-05-08T01:59:29.727Z,18.48
2018-05-08T02:01:58.448Z,18.45
2018-05-08T02:04:26.769Z,18.35
2018-05-08T02:06:55.115Z,18.29
2018-05-08T02:09:23.463Z,18.21
2018-05-08T02:11:51.810Z,18.34
2018-05-08T02:14:20.147Z,18.23
2018-05-08T02:16:48.475Z,18.29
2018-05-08T02:19:16.795Z,18.18
2018-05-08T02:21:45.152Z,18.16
2018-05-08T02:24:13.996Z,18.18
2018-05-08T02:26:42.325Z,18.39
2018-05-08T02:29:10.633Z,18.22
2018-05-08T02:31:38.962Z,18.30
2018-05-08T02:34:07.268Z,18.39
2018-05-08T02:36:35.607Z,18.33
2018-05-08T02:39:03.948Z,18.18
2018-05-08T02:41:33.047Z,18.21
2018-05-08T02:44:02.145Z,18.19
2018-05-08T02:46:30.903Z,18.21
2018-05-08T02:48:59.219Z,18.16
2018-05-08T02:51:28.298Z,18.17
2018-05-08T02:53:56.645Z,17.93
2018-05-08T02:56:25.042Z,18.00
2018-05-08T02:58:53.407Z,17.88
2018-05-08T03:01:21.731Z,17.83
2018-05-08T03:03:50.814Z,17.61
2018-05-08T03:06:19.123Z,17.59
2018-05-08T03:08:48.555Z,17.51
2018-05-08T03:11:16.890Z,17.65
2018-05-08T03:13:45.974Z,17.66
2018-05-08T03:16:14.345Z,17.57
2018-05-08T03:18:42.654Z,17.51
2018-05-08T03:21:10.961Z,17.52
2018-05-08T03:23:39.286Z,17.45
2018-05-08T03:26:07.607Z,17.35
2018-05-08T03:28:35.919Z,17.38
2018-05-08T03:31:04.591Z,17.35
2018-05-08T03:33:32.905Z,17.22
2018-05-08T03:36:01.218Z,17.25
2018-05-08T03:38:29.573Z,17.20
2018-05-08T03:40:58.682Z,17.23
2018-05-08T03:43:26.995Z,17.21
2018-05-08T03:45:55.361Z,17.23
2018-05-08T03:48:23.688Z,17.18
2018-05-08T03:50:52.018Z,17.22
2018-05-08T03:53:20.679Z,17.21
2018-05-08T03:55:49.755Z,17.16
2018-05-08T03:58:18.063Z,17.17
2018-05-08T04:01:03.898Z,17.08
2018-05-08T04:03:49.841Z,17.10
2018-05-08T04:06:37.341Z,17.06
2018-05-08T04:09:05.647Z,16.92
2018-05-08T04:11:34.744Z,17.00
2018-05-08T04:14:04.240Z,17.11
2018-05-08T04:16:33.317Z,17.24
2018-05-08T04:19:01.612Z,17.14
2018-05-08T04:21:30.719Z,17.16
2018-05-08T04:23:59.084Z,17.19
2018-05-08T04:26:27.407Z,17.09
2018-05-08T04:28:55.819Z,17.16
2018-05-08T04:31:24.166Z,17.23
2018-05-08T04:33:52.514Z,17.26
2018-05-08T04:36:20.968Z,17.47
2018-05-08T04:38:49.325Z,17.54
2018-05-08T04:41:17.694Z,17.58
2018-05-08T04:43:46.919Z,17.67
2018-05-08T04:46:15.226Z,17.78
2018-05-08T04:48:43.559Z,17.84
2018-05-08T04:51:11.939Z,17.91
2018-05-08T04:53:40.321Z,17.98
2018-05-08T04:56:08.695Z,18.11
2018-05-08T04:58:38.019Z,18.20
2018-05-08T05:01:06.398Z,18.21
2018-05-08T05:03:34.782Z,18.33
2018-05-08T05:06:03.268Z,18.39
2018-05-08T05:08:31.715Z,18.45
2018-05-08T05:11:00.159Z,18.58
2018-05-08T05:13:28.550Z,18.62
2018-05-08T05:15:56.898Z,18.79
2018-05-08T05:18:26.008Z,18.84
2018-05-08T05:20:55.859Z,18.98
2018-05-08T05:23:24.235Z,19.09
2018-05-08T05:25:52.557Z,19.12
2018-05-08T05:28:21.030Z,19.31
2018-05-08T05:30:49.413Z,19.49
2018-05-08T05:33:17.713Z,19.53
2018-05-08T05:35:46.805Z,19.59
2018-05-08T05:38:16.056Z,19.62
2018-05-08T05:40:44.450Z,19.78
2018-05-08T05:43:13.181Z,19.95
2018-05-08T05:45:42.345Z,20.09
2018-05-08T05:48:10.692Z,20.13
2018-05-08T05:50:39.159Z,20.27
2018-05-08T05:53:07.474Z,20.30
2018-05-08T05:55:35.807Z,20.43
2018-05-08T05:58:04.172Z,20.39
2018-05-08T06:00:33.235Z,20.07
2018-05-08T06:03:01.554Z,19.64
2018-05-08T06:05:30.356Z,19.57
2018-05-08T06:07:58.688Z,19.42
2018-05-08T06:10:27.001Z,19.43
2018-05-08T06:12:55.355Z,19.75
2018-05-08T06:15:23.676Z,19.92
2018-05-08T06:17:52.037Z,19.99
2018-05-08T06:20:20.371Z,19.79
2018-05-08T06:22:48.688Z,20.14
2018-05-08T06:25:17.780Z,20.27
2018-05-08T06:27:47.088Z,20.37
2018-05-08T06:30:15.395Z,20.33
2018-05-08T06:32:43.742Z,20.40
2018-05-08T06:35:12.878Z,20.79
2018-05-08T06:37:41.221Z,20.91
2018-05-08T06:40:09.645Z,21.12
2018-05-08T06:42:37.913Z,21.21
2018-05-08T06:45:06.225Z,21.41
2018-05-08T06:47:34.570Z,21.37
2018-05-08T06:50:03.449Z,20.82
2018-05-08T06:52:31.787Z,21.23
2018-05-08T06:55:00.978Z,21.44
2018-05-08T06:57:29.998Z,21.74
2018-05-08T06:59:59.098Z,22.05
2018-05-08T07:02:27.388Z,21.99
2018-05-08T07:04:55.734Z,22.00
2018-05-08T07:07:24.840Z,22.18
2018-05-08T07:09:53.908Z,21.87
2018-05-08T07:12:22.524Z,22.30
2018-05-08T07:14:51.624Z,22.54
2018-05-08T07:17:20.723Z,22.71
2018-05-08T07:19:49.095Z,22.75
2018-05-08T07:22:18.192Z,22.46
2018-05-08T07:24:46.540Z,22.14
2018-05-08T07:27:14.891Z,22.35
2018-05-08T07:29:43.232Z,22.73
2018-05-08T07:32:11.551Z,23.03
2018-05-08T07:34:39.990Z,23.21
2018-05-08T07:37:09.077Z,23.11
2018-05-08T07:39:38.182Z,23.47
2018-05-08T07:42:07.319Z,23.58
2018-05-08T07:44:36.405Z,23.58
2018-05-08T07:47:04.876Z,23.58
2018-05-08T07:49:33.228Z,23.57
2018-05-08T07:52:02.301Z,23.57
2018-05-08T07:54:30.644Z,23.65
2018-05-08T07:56:59.151Z,23.84
2018-05-08T07:59:27.450Z,23.84
2018-05-08T08:01:55.767Z,23.65
2018-05-08T08:04:24.095Z,23.68
2018-05-08T08:06:52.438Z,23.95
2018-05-08T08:09:20.795Z,24.04
2018-05-08T08:11:49.155Z,24.15
2018-05-08T08:14:18.251Z,24.41
2018-05-08T08:16:47.344Z,24.07
2018-05-08T08:19:16.704Z,23.91
2018-05-08T08:21:45.014Z,24.39
2018-05-08T08:24:13.317Z,24.47
2018-05-08T08:26:41.654Z,24.54
2018-05-08T08:29:09.972Z,24.82
2018-05-08T08:31:38.295Z,24.72
2018-05-08T08:34:06.649Z,25.10
2018-05-08T08:36:34.956Z,24.74
2018-05-08T08:39:03.275Z,24.79
2018-05-08T08:41:32.478Z,24.45
2018-05-08T08:44:01.622Z,24.44
2018-05-08T08:46:30.066Z,24.57
2018-05-08T08:48:58.330Z,24.76
2018-05-08T08:51:26.702Z,24.92
2018-05-08T08:53:55.067Z,25.07
2018-05-08T08:56:23.720Z,25.08
2018-05-08T08:58:52.040Z,25.26
2018-05-08T09:01:20.367Z,25.65
2018-05-08T09:03:48.950Z,25.39
2018-05-08T09:06:17.276Z,25.34
2018-05-08T09:08:45.817Z,25.27
2018-05-08T09:11:14.248Z,24.95
2018-05-08T09:13:42.547Z,25.08
2018-05-08T09:16:11.639Z,25.30
2018-05-08T09:18:40.016Z,25.37
2018-05-08T09:21:09.112Z,25.38
2018-05-08T09:23:38.198Z,25.53
2018-05-08T09:26:07.510Z,25.88
2018-05-08T09:28:37.490Z,25.54
2018-05-08T09:31:05.793Z,25.55
2018-05-08T09:33:34.139Z,25.89
2018-05-08T09:36:02.445Z,26.03
2018-05-08T09:38:30.748Z,26.24
2018-05-08T09:40:59.130Z,26.20
2018-05-08T09:43:27.448Z,26.48
2018-05-08T09:45:55.776Z,26.58
2018-05-08T09:48:24.411Z,26.72
2018-05-08T09:50:52.786Z,26.60
2018-05-08T09:53:21.823Z,26.61
2018-05-08T09:55:50.943Z,26.57
2018-05-08T09:58:19.259Z,26.97
2018-05-08T10:00:47.569Z,26.63
2018-05-08T10:03:15.919Z,26.60
2018-05-08T10:05:44.224Z,26.47
2018-05-08T10:08:13.326Z,26.80
2018-05-08T10:10:42.647Z,26.56
2018-05-08T10:13:11.759Z,26.82
2018-05-08T10:15:41.034Z,27.24
2018-05-08T10:18:10.179Z,27.20
2018-05-08T10:20:39.392Z,27.45
2018-05-08T10:23:07.679Z,27.55
2018-05-08T10:25:36.041Z,27.47
2018-05-08T10:28:04.345Z,27.31
2018-05-08T10:30:32.663Z,27.40
2018-05-08T10:33:01.380Z,27.81
2018-05-08T10:35:30.414Z,28.02
2018-05-08T10:37:58.787Z,27.74
2018-05-08T10:40:27.163Z,27.42
2018-05-08T10:42:55.516Z,27.48
2018-05-08T10:45:23.837Z,27.58
2018-05-08T10:47:52.977Z,27.57
2018-05-08T10:50:21.293Z,27.42
2018-05-08T10:52:49.648Z,27.82
2018-05-08T10:55:18.505Z,27.75
2018-05-08T10:57:46.822Z,28.32
2018-05-08T11:00:15.131Z,28.01
2018-05-08T11:02:43.496Z,28.01
2018-05-08T11:05:11.804Z,28.01
2018-05-08T11:07:40.122Z,28.30
2018-05-08T11:10:08.500Z,28.38
2018-05-08T11:12:36.830Z,28.70
2018-05-08T11:15:05.911Z,28.62
2018-05-08T11:17:34.662Z,28.38
2018-05-08T11:20:02.986Z,28.23
2018-05-08T11:22:32.071Z,28.05
2018-05-08T11:25:00.410Z,28.44
2018-05-08T11:27:28.708Z,28.43
2018-05-08T11:29:57.101Z,28.43
2018-05-08T11:32:25.488Z,28.68
2018-05-08T11:34:53.867Z,28.75
2018-05-08T11:37:22.204Z,28.76
2018-05-08T11:39:50.741Z,28.83
2018-05-08T11:42:19.840Z,29.19
2018-05-08T11:44:48.201Z,28.64
2018-05-08T11:47:16.528Z,28.38
2018-05-08T11:49:44.855Z,28.41
2018-05-08T11:52:13.213Z,28.75
2018-05-08T11:54:41.570Z,28.81
2018-05-08T11:57:09.930Z,28.30
2018-05-08T11:59:38.262Z,28.18
2018-05-08T12:02:06.810Z,28.28
2018-05-08T12:04:35.139Z,28.43
2018-05-08T12:07:03.500Z,29.14
2018-05-08T12:09:31.841Z,29.43
2018-05-08T12:12:00.148Z,29.82
2018-05-08T12:14:28.477Z,29.72
2018-05-08T12:16:56.827Z,29.15
2018-05-08T12:19:25.135Z,29.03
2018-05-08T12:21:54.246Z,28.93
2018-05-08T12:24:23.470Z,28.85
2018-05-08T12:26:51.821Z,29.37
2018-05-08T12:29:20.125Z,29.19
2018-05-08T12:31:48.502Z,29.33
2018-05-08T12:34:16.812Z,29.41
2018-05-08T12:36:45.178Z,29.71
2018-05-08T12:39:13.531Z,29.80
2018-05-08T12:41:41.876Z,29.57
2018-05-08T12:44:10.964Z,29.64
2018-05-08T12:46:40.338Z,29.45
2018-05-08T12:49:08.647Z,29.48
2018-05-08T12:51:37.752Z,29.63
2018-05-08T12:54:06.077Z,29.23
2018-05-08T12:56:34.392Z,29.16
2018-05-08T12:59:02.756Z,29.25
2018-05-08T13:01:31.082Z,28.91
2018-05-08T13:03:59.432Z,28.53
2018-05-08T13:06:27.793Z,28.72
2018-05-08T13:08:56.515Z,28.43
2018-05-08T13:11:24.833Z,28.53
2018-05-08T13:13:53.164Z,28.67
2018-05-08T13:16:22.311Z,28.44
2018-05-08T13:18:51.389Z,28.31
2018-05-08T13:21:19.715Z,28.83
2018-05-08T13:23:48.067Z,29.07
2018-05-08T13:26:16.414Z,29.19
2018-05-08T13:28:44.762Z,29.22
2018-05-08T13:31:13.474Z,28.84
2018-05-08T13:33:41.596Z,29.07
2018-05-08T13:36:09.919Z,28.95
2018-05-08T13:38:39.064Z,29.22
2018-05-08T13:41:07.367Z,29.38
2018-05-08T13:43:35.683Z,29.51
2018-05-08T13:46:04.061Z,28.98
2018-05-08T13:48:32.397Z,28.69
2018-05-08T13:51:00.746Z,28.59
2018-05-08T13:53:29.300Z,28.73
2018-05-08T13:55:57.624Z,28.78
2018-05-08T13:58:25.962Z,28.84
2018-05-08T14:00:54.351Z,28.43
2018-05-08T14:03:23.406Z,28.37
2018-05-08T14:05:51.713Z,28.93
2018-05-08T14:08:20.819Z,28.81
2018-05-08T14:10:49.137Z,28.28
2018-05-08T14:13:17.443Z,28.41
2018-05-08T14:15:46.218Z,28.74
2018-05-08T14:18:14.523Z,28.70
2018-05-08T14:20:43.639Z,28.81
2018-05-08T14:23:12.030Z,28.51
2018-05-08T14:25:40.370Z,28.36
2018-05-08T14:28:09.495Z,28.46
2018-05-08T14:30:37.867Z,28.78
2018-05-08T14:33:06.186Z,28.50
2018-05-08T14:35:34.515Z,28.26
2018-05-08T14:38:03.867Z,28.20
2018-05-08T14:40:32.199Z,28.55
2018-05-08T14:43:00.544Z,28.46
2018-05-08T14:45:28.892Z,28.41
2018-05-08T14:47:57.212Z,28.41
2018-05-08T14:50:25.528Z,28.38
2018-05-08T14:52:53.898Z,28.56
2018-05-08T14:55:22.201Z,29.02
2018-05-08T14:57:50.530Z,28.86
2018-05-08T15:00:19.061Z,28.90
2018-05-08T15:02:47.398Z,28.55
2018-05-08T15:05:16.472Z,28.23
2018-05-08T15:07:44.824Z,28.45
2018-05-08T15:10:13.164Z,28.58
2018-05-08T15:12:41.458Z,28.56
2018-05-08T15:15:09.821Z,28.60
2018-05-08T15:17:38.914Z,28.60
2018-05-08T15:20:07.992Z,28.29
2018-05-08T15:22:37.595Z,28.33
2018-05-08T15:25:05.896Z,28.41
2018-05-08T15:27:34.270Z,28.26
2018-05-08T15:30:02.633Z,28.35
2018-05-08T15:32:30.949Z,28.45
2018-05-08T15:34:59.281Z,28.33
2018-05-08T15:37:27.684Z,28.67
2018-05-08T15:39:56.010Z,28.41
2018-05-08T15:42:24.349Z,28.35
2018-05-08T15:44:53.160Z,28.21
2018-05-08T15:47:21.509Z,28.11
2018-05-08T15:49:49.788Z,27.98
2018-05-08T15:52:18.875Z,27.99
2018-05-08T15:54:47.963Z,28.00
2018-05-08T15:57:16.279Z,28.44
2018-05-08T15:59:44.624Z,28.40
2018-05-08T16:02:13.037Z,28.32
2018-05-08T16:04:41.320Z,28.12
2018-05-08T16:07:10.071Z,27.92
2018-05-08T16:09:39.202Z,27.95
2018-05-08T16:12:07.549Z,27.96
2018-05-08T16:14:36.691Z,28.24
2018-05-08T16:17:05.020Z,28.41
2018-05-08T16:19:34.102Z,28.05
2018-05-08T16:22:02.538Z,27.81
2018-05-08T16:24:30.870Z,27.51
2018-05-08T16:26:59.196Z,27.69
2018-05-08T16:29:27.919Z,27.75
2018-05-08T16:31:56.251Z,28.09
2018-05-08T16:34:24.560Z,28.34
2018-05-08T16:36:52.898Z,28.21
2018-05-08T16:39:21.296Z,27.57
2018-05-08T16:41:49.560Z,27.47
2018-05-08T16:44:17.934Z,27.63
2018-05-08T16:46:46.248Z,27.70
2018-05-08T16:49:14.592Z,27.98
2018-05-08T16:51:43.866Z,28.13
2018-05-08T16:54:12.159Z,28.09
2018-05-08T16:56:41.276Z,27.96
2018-05-08T16:59:09.631Z,28.03
2018-05-08T17:01:37.974Z,27.73
2018-05-08T17:04:06.284Z,27.68
2018-05-08T17:06:35.232Z,27.74
2018-05-08T17:09:03.601Z,27.70
2018-05-08T17:11:31.953Z,27.96
2018-05-08T17:14:00.600Z,27.82
2018-05-08T17:16:28.904Z,27.63
2018-05-08T17:18:57.990Z,27.53
2018-05-08T17:21:26.381Z,27.55
2018-05-08T17:23:54.717Z,27.90
2018-05-08T17:26:23.082Z,27.63
2018-05-08T17:28:51.449Z,27.46
2018-05-08T17:31:19.767Z,27.21
2018-05-08T17:33:48.136Z,27.32
2018-05-08T17:36:16.969Z,27.31
2018-05-08T17:38:45.314Z,27.50
2018-05-08T17:41:13.659Z,27.30
2018-05-08T17:43:42.025Z,27.35
2018-05-08T17:46:10.365Z,27.23
2018-05-08T17:48:38.709Z,26.94
2018-05-08T17:51:07.106Z,26.86
2018-05-08T17:53:35.491Z,27.04
2018-05-08T17:56:03.809Z,26.92
2018-05-08T17:58:32.385Z,26.92
2018-05-08T18:01:00.747Z,27.21
2018-05-08T18:03:29.049Z,27.33
2018-05-08T18:05:58.160Z,26.95
2018-05-08T18:08:26.483Z,26.93
2018-05-08T18:10:54.830Z,26.90
2018-05-08T18:13:23.180Z,26.97
2018-05-08T18:15:52.261Z,27.07
2018-05-08T18:18:20.620Z,27.02
2018-05-08T18:20:49.839Z,26.56
2018-05-08T18:23:18.923Z,26.58
2018-05-08T18:25:47.256Z,26.58
2018-05-08T18:28:15.638Z,26.75
2018-05-08T18:30:43.991Z,26.45
2018-05-08T18:33:13.098Z,26.53
2018-05-08T18:35:41.450Z,26.31
2018-05-08T18:38:09.792Z,26.22
2018-05-08T18:40:38.139Z,26.01
2018-05-08T18:43:06.895Z,26.16
2018-05-08T18:45:35.213Z,26.20
2018-05-08T18:48:03.563Z,26.24
2018-05-08T18:50:31.901Z,26.19
2018-05-08T18:53:00.269Z,26.10
2018-05-08T18:55:28.580Z,26.14
2018-05-08T18:57:56.962Z,26.26
2018-05-08T19:00:25.285Z,26.16
2018-05-08T19:02:53.614Z,26.21
2018-05-08T19:05:22.416Z,26.16
2018-05-08T19:07:50.733Z,26.19
2018-05-08T19:10:22.029Z,25.95
2018-05-08T19:12:50.504Z,25.96
2018-05-08T19:15:26.529Z,25.91
2018-05-08T19:17:54.963Z,25.69
2018-05-08T19:20:24.065Z,25.51
2018-05-08T19:22:53.286Z,25.46
2018-05-08T19:25:21.836Z,25.37
2018-05-08T19:27:50.192Z,25.13
2018-05-08T19:30:24.030Z,25.24
2018-05-08T19:32:52.395Z,25.30
2018-05-08T19:35:26.284Z,25.21
2018-05-08T19:38:00.305Z,25.24
2018-05-08T19:40:28.835Z,25.16
2018-05-08T19:42:57.158Z,25.18
2018-05-08T19:45:25.500Z,25.12
2018-05-08T19:47:53.871Z,24.62
2018-05-08T19:50:22.225Z,24.72
2018-05-08T19:52:51.418Z,24.67
2018-05-08T19:55:19.778Z,24.56
2018-05-08T19:57:48.192Z,24.51
2018-05-08T20:00:16.476Z,24.54
2018-05-08T20:02:44.961Z,24.37
2018-05-08T20:05:13.392Z,24.35
2018-05-08T20:07:41.863Z,24.23
2018-05-08T20:10:10.403Z,24.26
2018-05-08T20:12:38.849Z,24.16
2018-05-08T20:15:07.174Z,24.14
2018-05-08T20:17:35.529Z,24.20
2018-05-08T20:20:04.611Z,24.14
2018-05-08T20:22:34.104Z,24.11
2018-05-08T20:25:02.919Z,24.09
2018-05-08T20:27:32.042Z,24.00
2018-05-08T20:30:00.758Z,24.02
2018-05-08T20:32:29.125Z,23.97
2018-05-08T20:34:57.454Z,23.83
2018-05-08T20:37:25.810Z,23.64
2018-05-08T20:39:54.960Z,23.62
2018-05-08T20:42:23.375Z,23.73
2018-05-08T20:44:51.685Z,23.58
2018-05-08T20:47:20.469Z,23.58
2018-05-08T20:49:48.789Z,23.40
2018-05-08T20:52:17.165Z,23.42
2018-05-08T20:54:46.278Z,23.41
2018-05-08T20:57:14.605Z,23.35
2018-05-08T20:59:42.945Z,23.12
2018-05-08T21:02:15.314Z,23.23
2018-05-08T21:04:43.629Z,23.29
2018-05-08T21:07:11.994Z,23.20
2018-05-08T21:09:40.600Z,23.27
2018-05-08T21:12:08.950Z,23.28
2018-05-08T21:14:37.284Z,23.20
2018-05-08T21:17:05.661Z,23.03
2018-05-08T21:19:34.794Z,22.96
2018-05-08T21:22:03.122Z,22.79
2018-05-08T21:24:31.459Z,22.71
2018-05-08T21:26:59.780Z,22.67
2018-05-08T21:29:34.127Z,22.69
2018-05-08T21:32:02.472Z,22.67
2018-05-08T21:34:30.804Z,22.52
2018-05-08T21:36:59.197Z,22.41
2018-05-08T21:39:27.522Z,22.31
2018-05-08T21:41:56.621Z,22.44
2018-05-08T21:44:25.754Z,22.38
2018-05-08T21:46:55.259Z,22.42
2018-05-08T21:49:23.588Z,22.34
2018-05-08T21:51:52.299Z,22.38
2018-05-08T21:54:20.612Z,22.35
2018-05-08T21:56:48.926Z,22.33
2018-05-08T21:59:17.272Z,22.34
2018-05-08T22:01:45.577Z,22.35
2018-05-08T22:04:13.968Z,22.41
2018-05-08T22:06:42.305Z,22.20
2018-05-08T22:09:10.627Z,22.14
2018-05-08T22:11:39.055Z,22.19
2018-05-08T22:14:07.609Z,22.12
2018-05-08T22:16:35.932Z,22.27
2018-05-08T22:19:04.275Z,22.30
2018-05-08T22:21:32.654Z,22.29
2018-05-08T22:24:01.012Z,22.34
2018-05-08T22:26:30.128Z,22.31
2018-05-08T22:28:58.481Z,22.29
2018-05-08T22:31:26.791Z,22.28
2018-05-08T22:33:55.133Z,22.42
2018-05-08T22:36:23.640Z,22.48
2018-05-08T22:38:52.749Z,22.56
2018-05-08T22:41:21.099Z,22.65
2018-05-08T22:43:49.463Z,22.53
2018-05-08T22:46:17.768Z,22.46
2018-05-08T22:48:46.867Z,22.28
2018-05-08T22:51:16.011Z,22.23
2018-05-08T22:53:44.317Z,22.26
2018-05-08T22:56:12.696Z,22.38
2018-05-08T22:58:42.229Z,22.36
2018-05-08T23:01:11.313Z,22.21
2018-05-08T23:03:40.413Z,22.18
2018-05-08T23:06:09.514Z,22.03
2018-05-08T23:08:38.589Z,22.08
2018-05-08T23:11:06.900Z,21.84
2018-05-08T23:13:35.269Z,21.90
2018-05-08T23:16:03.593Z,21.96
2018-05-08T23:18:31.895Z,22.06
2018-05-08T23:21:00.724Z,22.09
2018-05-08T23:23:29.030Z,22.01
2018-05-08T23:25:57.341Z,21.94
2018-05-08T23:28:25.749Z,21.73
2018-05-08T23:30:54.069Z,21.89
2018-05-08T23:33:22.378Z,21.79
2018-05-08T23:35:50.749Z,21.67
2018-05-08T23:38:21.136Z,21.66
2018-05-08T23:40:49.668Z,21.76
2018-05-08T23:43:18.038Z,21.72
2018-05-08T23:45:46.378Z,21.79
2018-05-08T23:48:14.703Z,21.72
2018-05-08T23:50:43.066Z,21.73
2018-05-08T23:53:12.173Z,21.56
2018-05-08T23:55:40.653Z,21.50
2018-05-08T23:58:09.017Z,21.34
